createdAt,value
2019-02-17T00:01:52.190Z,14.50
2019-02-17T00:04:21.733Z,15.33
2019-02-17T00:06:51.172Z,12.13
2019-02-17T00:09:21.054Z,15.65
2019-02-17T00:12:03.514Z,12.23
2019-02-17T00:14:33.154Z,15.47
2019-02-17T00:17:02.771Z,12.20
2019-02-17T00:19:32.246Z,16.90
2019-02-17T00:25:03.518Z,12.20
2019-02-17T00:30:21.247Z,18.92
2019-02-17T00:32:51.334Z,19.95
2019-02-17T00:35:21.414Z,23.12
2019-02-17T00:37:51.427Z,14.83
2019-02-17T00:40:21.352Z,12.80
2019-02-17T00:45:32.848Z,13.90
2019-02-17T00:48:02.353Z,15.68
2019-02-17T00:50:31.829Z,16.90
2019-02-17T00:53:01.328Z,17.53
2019-02-17T00:55:32.417Z,16.50
2019-02-17T00:58:01.898Z,16.32
2019-02-17T01:00:31.371Z,12.53
2019-02-17T01:05:54.692Z,18.37
2019-02-17T01:08:24.206Z,19.33
2019-02-17T01:11:05.945Z,13.93
2019-02-17T01:13:35.451Z,17.83
2019-02-17T01:16:04.928Z,15.70
2019-02-17T01:18:34.446Z,17.67
2019-02-17T01:21:03.916Z,17.73
2019-02-17T01:23:33.445Z,15.80
2019-02-17T01:26:02.937Z,15.53
2019-02-17T01:28:32.430Z,16.57
2019-02-17T01:34:23.395Z,16.60
2019-02-17T01:36:52.908Z,15.60
2019-02-17T01:39:22.421Z,10.30
2019-02-17T01:41:52.132Z,16.40
2019-02-17T01:44:22.258Z,20.88
2019-02-17T01:46:52.410Z,13.20
2019-02-17T01:49:22.358Z,12.37
2019-02-17T01:51:52.334Z,18.75
2019-02-17T01:54:22.463Z,16.35
2019-02-17T01:56:52.467Z,19.15
2019-02-17T01:59:30.400Z,14.73
2019-02-17T02:02:13.876Z,12.57
2019-02-17T02:04:43.375Z,18.02
2019-02-17T02:07:12.858Z,20.27
2019-02-17T02:09:42.344Z,17.62
2019-02-17T02:12:11.820Z,12.87
2019-02-17T02:14:41.298Z,14.50
2019-02-17T02:17:10.767Z,23.77
2019-02-17T02:20:20.126Z,11.23
2019-02-17T02:22:49.596Z,12.73
2019-02-17T02:25:19.089Z,16.50
2019-02-17T02:27:48.563Z,14.00
2019-02-17T02:30:18.061Z,14.27
2019-02-17T02:32:47.526Z,10.37
2019-02-17T02:35:17.033Z,16.30
2019-02-17T02:40:46.094Z,13.27
2019-02-17T02:43:15.557Z,13.10
2019-02-17T02:45:45.051Z,13.20
2019-02-17T02:48:14.600Z,14.55
2019-02-17T02:50:44.228Z,14.50
2019-02-17T02:53:13.738Z,15.03
2019-02-17T02:58:37.182Z,9.37
2019-02-17T03:03:52.957Z,15.77
2019-02-17T03:06:28.925Z,15.32
2019-02-17T03:08:58.499Z,13.30
2019-02-17T03:11:27.991Z,9.00
2019-02-17T03:13:57.469Z,16.77
2019-02-17T03:16:26.968Z,15.80
2019-02-17T03:19:15.689Z,16.33
2019-02-17T03:21:45.165Z,13.13
2019-02-17T03:24:14.821Z,21.37
2019-02-17T03:26:45.962Z,14.63
2019-02-17T03:29:15.425Z,12.20
2019-02-17T03:31:44.942Z,13.17
2019-02-17T03:34:14.449Z,12.20
2019-02-17T03:36:56.071Z,12.37
2019-02-17T03:39:25.587Z,9.33
2019-02-17T03:41:55.091Z,18.23
2019-02-17T03:44:24.589Z,18.17
2019-02-17T03:46:54.097Z,13.50
2019-02-17T03:49:23.562Z,14.03
2019-02-17T03:51:53.246Z,13.25
2019-02-17T03:54:23.352Z,13.43
2019-02-17T03:59:47.569Z,13.33
2019-02-17T04:02:23.140Z,12.10
2019-02-17T04:04:53.133Z,10.03
2019-02-17T04:07:41.769Z,10.60
2019-02-17T04:10:11.266Z,13.63
2019-02-17T04:12:40.801Z,16.90
2019-02-17T04:15:10.374Z,14.60
2019-02-17T04:20:21.358Z,12.87
2019-02-17T04:23:10.193Z,14.97
2019-02-17T04:25:39.657Z,17.97
2019-02-17T04:28:09.173Z,15.10
2019-02-17T04:30:38.653Z,20.85
2019-02-17T04:33:13.375Z,17.03
2019-02-17T04:35:42.890Z,19.07
2019-02-17T04:38:12.370Z,17.77
2019-02-17T04:40:41.887Z,17.37
2019-02-17T04:43:23.661Z,19.87
2019-02-17T04:45:53.387Z,19.57
2019-02-17T04:48:23.288Z,15.43
2019-02-17T04:50:53.299Z,15.80
2019-02-17T04:53:23.370Z,10.35
2019-02-17T04:55:53.430Z,19.35
2019-02-17T04:58:24.538Z,21.50
2019-02-17T05:00:54.052Z,20.73
2019-02-17T05:03:23.535Z,20.03
2019-02-17T05:08:44.133Z,18.87
2019-02-17T05:11:13.661Z,18.10
2019-02-17T05:13:43.155Z,20.77
2019-02-17T05:16:12.658Z,19.63
2019-02-17T05:18:42.164Z,17.53
2019-02-17T05:21:11.621Z,18.40
2019-02-17T05:23:41.148Z,19.77
2019-02-17T05:26:10.624Z,22.00
2019-02-17T05:28:40.164Z,24.87
2019-02-17T05:31:29.015Z,16.67
2019-02-17T05:34:17.773Z,20.00
2019-02-17T05:36:47.333Z,19.23
2019-02-17T05:39:16.752Z,26.50
2019-02-17T05:41:46.230Z,18.00
2019-02-17T05:44:15.724Z,21.63
2019-02-17T05:46:45.211Z,20.83
2019-02-17T05:49:14.713Z,17.70
2019-02-17T05:51:44.254Z,20.20
2019-02-17T05:54:13.913Z,20.00
2019-02-17T05:56:43.397Z,20.63
2019-02-17T05:59:12.914Z,22.03
2019-02-17T06:02:02.574Z,21.10
2019-02-17T06:04:51.091Z,28.60
2019-02-17T06:07:20.582Z,21.63
2019-02-17T06:09:50.077Z,22.13
2019-02-17T06:12:19.591Z,24.00
2019-02-17T06:20:24.605Z,16.50
2019-02-17T06:25:42.674Z,23.50
2019-02-17T06:28:12.144Z,22.62
2019-02-17T06:34:14.839Z,24.53
2019-02-17T06:36:44.370Z,26.27
2019-02-17T06:39:13.847Z,28.57
2019-02-17T06:41:48.926Z,27.60
2019-02-17T06:44:18.431Z,21.93
2019-02-17T06:49:31.283Z,20.15
2019-02-17T06:52:01.182Z,25.47
2019-02-17T06:54:30.679Z,25.87
2019-02-17T06:57:19.237Z,24.00
2019-02-17T06:59:48.750Z,22.97
2019-02-17T07:02:18.244Z,25.63
2019-02-17T07:05:06.796Z,19.17
2019-02-17T07:07:36.290Z,23.00
2019-02-17T07:10:05.817Z,25.90
2019-02-17T07:12:35.310Z,20.35
2019-02-17T07:15:24.119Z,17.37
2019-02-17T07:17:53.618Z,23.37
2019-02-17T07:20:23.118Z,31.80
2019-02-17T07:22:52.604Z,23.63
2019-02-17T07:25:29.808Z,24.92
2019-02-17T07:36:44.197Z,24.07
2019-02-17T07:39:13.812Z,28.87
2019-02-17T07:47:37.714Z,26.87
2019-02-17T07:50:08.052Z,24.50
2019-02-17T07:52:37.551Z,24.10
2019-02-17T07:55:07.698Z,30.83
2019-02-17T08:00:19.348Z,30.80
2019-02-17T08:02:49.605Z,28.57
2019-02-17T08:08:19.803Z,27.22
2019-02-17T08:10:49.308Z,25.50
2019-02-17T08:13:18.775Z,23.97
2019-02-17T08:15:48.276Z,27.87
2019-02-17T08:18:37.076Z,26.77
2019-02-17T08:21:06.568Z,27.87
2019-02-17T08:23:36.041Z,26.10
2019-02-17T08:26:05.525Z,22.63
2019-02-17T08:28:54.127Z,28.00
2019-02-17T08:31:42.657Z,28.07
2019-02-17T08:34:12.161Z,34.17
2019-02-17T08:36:41.650Z,27.90
2019-02-17T08:39:11.156Z,28.47
2019-02-17T08:41:40.676Z,29.00
2019-02-17T08:44:10.173Z,27.48
2019-02-17T08:46:39.681Z,27.57
2019-02-17T08:51:57.730Z,32.27
2019-02-17T08:54:27.239Z,22.90
2019-02-17T08:56:56.743Z,24.77
2019-02-17T08:59:26.224Z,30.90
2019-02-17T09:02:05.365Z,23.70
2019-02-17T09:05:05.239Z,29.70
2019-02-17T09:07:34.754Z,30.57
2019-02-17T09:10:04.717Z,28.63
2019-02-17T09:12:53.495Z,25.80
2019-02-17T09:15:22.967Z,24.27
2019-02-17T09:17:52.499Z,27.33
2019-02-17T09:20:22.001Z,25.77
2019-02-17T09:23:10.820Z,22.67
2019-02-17T09:25:40.299Z,25.90
2019-02-17T09:28:09.815Z,23.30
2019-02-17T09:30:40.895Z,24.02
2019-02-17T09:33:10.430Z,21.83
2019-02-17T09:35:39.922Z,28.30
2019-02-17T09:40:51.082Z,23.80
2019-02-17T09:43:20.575Z,21.57
2019-02-17T09:45:50.069Z,31.53
2019-02-17T09:48:19.620Z,24.20
2019-02-17T09:50:49.114Z,23.15
2019-02-17T09:53:37.651Z,20.90
2019-02-17T09:56:08.770Z,25.70
2019-02-17T09:58:38.292Z,22.80
2019-02-17T10:01:07.778Z,22.83
2019-02-17T10:03:37.269Z,23.55
2019-02-17T10:06:06.739Z,29.23
2019-02-17T10:08:36.266Z,23.73
2019-02-17T10:11:05.746Z,23.13
2019-02-17T10:13:35.526Z,26.95
2019-02-17T10:16:05.063Z,26.87
2019-02-17T10:18:53.627Z,26.90
2019-02-17T10:21:23.123Z,24.70
2019-02-17T10:23:52.618Z,30.92
2019-02-17T10:26:22.127Z,25.93
2019-02-17T10:28:51.622Z,27.32
2019-02-17T10:31:21.129Z,30.10
2019-02-17T10:33:51.127Z,23.30
2019-02-17T10:36:39.747Z,23.63
2019-02-17T10:39:09.331Z,25.57
2019-02-17T10:41:38.790Z,24.03
2019-02-17T10:50:02.392Z,28.40
2019-02-17T10:52:31.904Z,22.90
2019-02-17T10:55:01.401Z,22.85
2019-02-17T10:57:30.902Z,28.37
2019-02-17T11:00:00.413Z,24.83
2019-02-17T11:02:30.020Z,21.93
2019-02-17T11:05:11.744Z,24.30
2019-02-17T11:08:00.594Z,26.63
2019-02-17T11:10:35.315Z,24.13
2019-02-17T11:13:04.843Z,25.82
2019-02-17T11:15:34.443Z,24.97
2019-02-17T11:18:04.018Z,31.40
2019-02-17T11:20:33.549Z,25.92
2019-02-17T11:25:57.663Z,29.70
2019-02-17T11:28:27.170Z,27.10
2019-02-17T11:31:17.585Z,29.03
2019-02-17T11:33:47.286Z,22.48
2019-02-17T11:44:49.945Z,22.37
2019-02-17T11:47:19.438Z,28.83
2019-02-17T11:49:48.951Z,18.03
2019-02-17T11:52:18.452Z,26.93
2019-02-17T11:54:48.019Z,22.27
2019-02-17T11:57:17.567Z,23.03
2019-02-17T11:59:47.090Z,25.67
2019-02-17T12:02:37.415Z,22.87
2019-02-17T12:05:07.502Z,30.17
2019-02-17T12:07:36.993Z,20.53
2019-02-17T12:10:07.163Z,24.20
2019-02-17T12:12:36.641Z,18.00
2019-02-17T12:15:18.494Z,27.07
2019-02-17T12:17:48.098Z,24.50
2019-02-17T12:20:36.241Z,22.70
2019-02-17T12:23:12.506Z,26.10
2019-02-17T12:25:51.985Z,21.50
2019-02-17T12:28:34.787Z,22.27
2019-02-17T12:31:05.443Z,23.47
2019-02-17T12:33:34.993Z,26.03
2019-02-17T12:36:18.712Z,20.53
2019-02-17T12:38:48.238Z,23.20
2019-02-17T12:41:17.729Z,20.65
2019-02-17T12:43:47.251Z,20.40
2019-02-17T12:46:16.747Z,23.63
2019-02-17T12:48:46.269Z,20.63
2019-02-17T12:51:34.836Z,24.93
2019-02-17T12:54:04.558Z,27.32
2019-02-17T12:56:34.098Z,24.45
2019-02-17T12:59:15.876Z,28.07
2019-02-17T13:01:45.534Z,20.27
2019-02-17T13:04:15.067Z,23.60
2019-02-17T13:06:44.666Z,17.37
2019-02-17T13:09:14.422Z,19.67
2019-02-17T13:11:44.068Z,18.97
2019-02-17T13:14:13.655Z,21.37
2019-02-17T13:16:43.200Z,28.52
2019-02-17T13:19:12.728Z,21.68
2019-02-17T13:22:01.467Z,25.43
2019-02-17T13:24:31.003Z,28.90
2019-02-17T13:27:00.607Z,23.20
2019-02-17T13:29:36.131Z,23.47
2019-02-17T13:32:05.678Z,27.40
2019-02-17T13:34:36.739Z,19.37
2019-02-17T13:37:06.216Z,28.47
2019-02-17T13:39:35.751Z,22.60
2019-02-17T13:42:05.252Z,18.10
2019-02-17T13:44:34.756Z,21.40
2019-02-17T13:47:04.265Z,21.23
2019-02-17T13:49:33.763Z,23.30
2019-02-17T13:52:03.279Z,20.10
2019-02-17T13:54:32.826Z,14.33
2019-02-17T13:57:02.336Z,20.88
2019-02-17T13:59:31.827Z,20.00
2019-02-17T14:02:21.533Z,19.92
2019-02-17T14:04:51.545Z,19.02
2019-02-17T14:07:21.482Z,17.47
2019-02-17T14:09:51.608Z,16.35
2019-02-17T14:12:21.709Z,22.20
2019-02-17T14:14:51.647Z,22.65
2019-02-17T14:17:21.559Z,17.75
2019-02-17T14:19:51.596Z,21.05
2019-02-17T14:22:21.792Z,20.17
2019-02-17T14:24:51.777Z,21.97
2019-02-17T14:27:21.626Z,25.65
2019-02-17T14:33:05.273Z,21.80
2019-02-17T14:35:53.947Z,20.15
2019-02-17T14:38:42.755Z,20.00
2019-02-17T14:41:12.276Z,21.83
2019-02-17T14:43:41.834Z,15.83
2019-02-17T14:46:11.502Z,20.30
2019-02-17T14:48:41.032Z,23.60
2019-02-17T14:51:10.574Z,19.98
2019-02-17T14:53:40.067Z,16.33
2019-02-17T14:56:09.575Z,22.70
2019-02-17T14:58:39.055Z,15.33
2019-02-17T15:01:27.609Z,18.00
2019-02-17T15:04:16.427Z,17.90
2019-02-17T15:06:57.724Z,22.30
2019-02-17T15:09:27.217Z,22.53
2019-02-17T15:11:56.904Z,22.13
2019-02-17T15:14:26.446Z,17.50
2019-02-17T15:16:56.018Z,20.40
2019-02-17T15:19:25.533Z,21.00
2019-02-17T15:24:36.247Z,18.80
2019-02-17T15:27:17.770Z,21.93
2019-02-17T15:29:47.351Z,19.33
2019-02-17T15:32:16.915Z,14.10
2019-02-17T15:34:46.454Z,21.33
2019-02-17T15:37:15.969Z,19.23
2019-02-17T15:39:47.078Z,19.60
2019-02-17T15:42:35.919Z,18.20
2019-02-17T15:45:25.590Z,15.10
2019-02-17T15:47:55.157Z,21.60
2019-02-17T15:50:43.777Z,16.77
2019-02-17T15:53:13.483Z,14.40
2019-02-17T15:55:43.043Z,19.33
2019-02-17T15:58:12.573Z,15.63
2019-02-17T16:00:42.054Z,14.30
2019-02-17T16:03:11.693Z,17.70
2019-02-17T16:05:41.298Z,20.17
2019-02-17T16:08:10.926Z,17.67
2019-02-17T16:10:40.443Z,18.10
2019-02-17T16:13:09.932Z,20.70
2019-02-17T16:15:39.424Z,14.60
2019-02-17T16:18:08.937Z,15.37
2019-02-17T16:20:38.461Z,15.40
2019-02-17T16:23:08.014Z,15.93
2019-02-17T16:28:26.128Z,15.00
2019-02-17T16:30:55.621Z,13.00
2019-02-17T16:33:25.138Z,12.07
2019-02-17T16:35:54.677Z,11.53
2019-02-17T16:38:43.287Z,12.93
2019-02-17T16:41:12.813Z,15.70
2019-02-17T16:44:01.650Z,13.90
2019-02-17T16:46:31.107Z,14.03
2019-02-17T16:49:00.617Z,24.67
2019-02-17T16:51:30.149Z,13.58
2019-02-17T16:53:59.640Z,16.83
2019-02-17T16:56:29.124Z,17.75
2019-02-17T16:59:17.678Z,17.30
2019-02-17T17:04:47.877Z,15.13
2019-02-17T17:07:28.238Z,11.97
2019-02-17T17:09:57.740Z,14.10
2019-02-17T17:15:21.360Z,13.03
2019-02-17T17:17:50.950Z,11.86
2019-02-17T17:20:22.123Z,16.20
2019-02-17T17:22:51.611Z,11.80
2019-02-17T17:25:21.255Z,17.37
2019-02-17T17:27:50.879Z,16.90
2019-02-17T17:30:20.531Z,13.30
2019-02-17T17:32:50.108Z,14.25
2019-02-17T17:35:19.567Z,13.70
2019-02-17T17:37:49.233Z,13.00
2019-02-17T17:40:18.736Z,14.83
2019-02-17T17:42:48.239Z,15.20
2019-02-17T17:45:17.772Z,14.90
2019-02-17T17:47:47.509Z,18.77
2019-02-17T17:50:17.103Z,21.70
2019-02-17T17:52:46.688Z,17.60
2019-02-17T17:55:16.521Z,15.57
2019-02-17T17:57:46.128Z,19.67
2019-02-17T18:03:07.285Z,17.75
2019-02-17T18:05:36.835Z,13.70
2019-02-17T18:08:06.413Z,16.93
2019-02-17T18:10:35.910Z,20.63
2019-02-17T18:16:05.783Z,22.77
2019-02-17T18:18:35.362Z,13.00
2019-02-17T18:23:46.905Z,22.45
2019-02-17T18:26:35.878Z,13.93
2019-02-17T18:29:05.435Z,18.20
2019-02-17T18:31:34.904Z,14.33
2019-02-17T18:34:04.656Z,15.40
2019-02-17T18:36:34.169Z,15.75
2019-02-17T18:39:24.486Z,14.53
2019-02-17T18:41:54.112Z,19.77
2019-02-17T18:44:23.738Z,17.45
2019-02-17T18:46:53.273Z,15.85
2019-02-17T18:49:22.832Z,15.17
2019-02-17T18:52:11.655Z,12.27
2019-02-17T18:54:41.223Z,13.05
2019-02-17T18:57:10.754Z,14.10
2019-02-17T18:59:40.354Z,15.90
2019-02-17T19:02:09.892Z,12.20
2019-02-17T19:04:59.646Z,14.43
2019-02-17T19:07:29.207Z,23.18
2019-02-17T19:09:58.825Z,13.72
2019-02-17T19:12:28.344Z,11.20
2019-02-17T19:14:57.881Z,12.53
2019-02-17T19:17:27.377Z,17.12
2019-02-17T19:19:56.915Z,13.40
2019-02-17T19:22:26.419Z,14.43
2019-02-17T19:24:55.955Z,10.10
2019-02-17T19:27:25.474Z,12.75
2019-02-17T19:30:06.988Z,19.00
2019-02-17T19:32:36.670Z,18.27
2019-02-17T19:35:07.758Z,13.28
2019-02-17T19:37:37.274Z,15.55
2019-02-17T19:40:07.658Z,13.73
2019-02-17T19:42:37.181Z,14.50
2019-02-17T19:45:07.791Z,14.00
2019-02-17T19:50:26.052Z,13.80
2019-02-17T19:52:55.608Z,18.53
2019-02-17T19:55:25.134Z,15.25
2019-02-17T19:57:54.657Z,19.92
2019-02-17T20:00:43.531Z,17.73
2019-02-17T20:03:32.867Z,19.30
2019-02-17T20:08:43.093Z,15.27
2019-02-17T20:11:12.695Z,14.90
2019-02-17T20:13:42.202Z,23.83
2019-02-17T20:16:11.737Z,15.32
2019-02-17T20:18:53.849Z,17.37
2019-02-17T20:21:23.385Z,15.33
2019-02-17T20:24:12.201Z,13.88
2019-02-17T20:29:36.023Z,16.53
2019-02-17T20:32:05.635Z,12.10
2019-02-17T20:34:35.329Z,16.07
2019-02-17T20:37:04.934Z,12.13
2019-02-17T20:39:34.430Z,13.43
2019-02-17T20:42:16.440Z,18.87
2019-02-17T20:44:46.044Z,19.47
2019-02-17T20:47:34.629Z,15.80
2019-02-17T20:50:04.157Z,14.53
2019-02-17T20:52:33.740Z,13.63
2019-02-17T20:55:15.769Z,14.60
2019-02-17T20:57:46.350Z,15.17
2019-02-17T21:00:16.666Z,15.30
2019-02-17T21:02:46.172Z,13.33
2019-02-17T21:05:16.105Z,20.40
2019-02-17T21:07:45.763Z,14.75
2019-02-17T21:13:28.644Z,12.97
2019-02-17T21:15:58.164Z,13.70
2019-02-17T21:18:27.854Z,20.07
2019-02-17T21:20:57.354Z,20.30
2019-02-17T21:23:26.848Z,15.43
2019-02-17T21:25:56.410Z,12.67
2019-02-17T21:28:25.966Z,13.17
2019-02-17T21:30:55.525Z,18.30
2019-02-17T21:33:25.034Z,19.85
2019-02-17T21:35:54.509Z,14.90
2019-02-17T21:38:24.034Z,16.53
2019-02-17T21:40:53.567Z,17.27
2019-02-17T21:43:23.027Z,14.37
2019-02-17T21:45:52.624Z,18.03
2019-02-17T21:48:22.133Z,11.23
2019-02-17T21:50:51.728Z,17.77
2019-02-17T21:53:21.341Z,15.83
2019-02-17T21:55:50.857Z,18.17
2019-02-17T21:58:20.374Z,16.80
2019-02-17T22:00:49.849Z,13.20
2019-02-17T22:03:19.340Z,21.48
2019-02-17T22:08:43.291Z,11.25
2019-02-17T22:11:12.874Z,14.00
2019-02-17T22:13:42.565Z,14.47
2019-02-17T22:16:12.132Z,8.78
2019-02-17T22:18:41.616Z,13.50
2019-02-17T22:24:04.930Z,19.53
2019-02-17T22:26:34.506Z,14.10
2019-02-17T22:29:04.035Z,13.37
2019-02-17T22:31:33.510Z,14.33
2019-02-17T22:36:52.288Z,12.90
2019-02-17T22:39:21.773Z,15.30
2019-02-17T22:42:03.317Z,11.00
2019-02-17T22:44:33.276Z,13.50
2019-02-17T22:47:03.436Z,15.78
2019-02-17T22:49:33.493Z,11.57
2019-02-17T22:52:03.506Z,17.85
2019-02-17T22:54:33.294Z,18.65
2019-02-17T22:57:03.475Z,12.75
2019-02-17T22:59:34.612Z,13.97
2019-02-17T23:04:45.876Z,13.70
2019-02-17T23:07:27.730Z,10.97
2019-02-17T23:09:57.471Z,15.10
2019-02-17T23:12:27.038Z,9.47
2019-02-17T23:14:56.512Z,15.28
2019-02-17T23:17:25.995Z,13.90
2019-02-17T23:19:55.493Z,13.03
2019-02-17T23:22:25.016Z,13.80
2019-02-17T23:24:54.500Z,16.77
2019-02-17T23:27:43.278Z,15.23
2019-02-17T23:30:12.845Z,11.35
2019-02-17T23:32:42.327Z,9.08
2019-02-17T23:35:51.663Z,17.80
2019-02-17T23:38:21.134Z,14.47
2019-02-17T23:40:50.656Z,15.43
2019-02-17T23:43:20.260Z,12.90
2019-02-17T23:45:49.764Z,14.20
2019-02-17T23:48:19.247Z,11.80
2019-02-17T23:50:48.821Z,15.03
2019-02-17T23:53:18.348Z,13.90
2019-02-17T23:55:47.910Z,11.27
2019-02-17T23:58:17.548Z,14.30
